Terminal Aerodrome Forecast
Issued by NWS Lake Charles, LA

Home | Current Version | Previous Version | Text Only | Print | Product List | Glossary On
Versions: 1 2 3 4 5 6 7 8 9 10 11 12 13 14
973
FTUS44 KLCH 241126
TAFLFT
TAF
KLFT 241126Z 2412/2512 18003KT 5SM BR VCTS SCT025CB SCT200
     FM241400 VRB05KT P6SM VCTS SCT025CB BKN040
      TEMPO 2420/2424 2SM TSRA BKN025CB
     FM250100 VRB03KT P6SM VCTS SCT025CB BKN200=

USA.gov is the U.S. government's official web portal to all federal, state and local government web resources and services.